Date,TemperatureHighF,TemperatureAvgF,TemperatureLowF,DewpointHighF,DewpointAvgF,DewpointLowF,HumidityHigh,HumidityAvg,HumidityLow,PressureMaxIn,PressureMinIn,WindSpeedMaxMPH,WindSpeedAvgMPH,GustSpeedMaxMPH,PrecipitationSumIn
2013-3-21,41.0,36.1,30.6,15.3,12.5,11.1,44,38,32,29.98,29.85,6,2,6,0.00
2013-3-22,52.9,38.7,25.2,20.7,15.8,11.3,57,41,25,30.08,29.98,4,1,4,0.00
2013-3-23,57.4,46.8,38.7,31.6,24.8,18.6,55,42,33,30.06,29.92,3,1,3,0.00
2013-3-24,43.4,38.1,35.6,36.0,33.1,25.9,90,83,52,29.94,29.59,7,1,7,0.98
2013-3-25,49.3,40.5,34.6,38.8,30.4,23.4,89,70,44,29.82,29.57,11,2,11,0.02
2013-3-26,49.3,41.8,34.4,29.9,26.2,23.6,67,54,44,30.10,29.82,7,2,7,0.00
2013-3-27,53.5,42.9,34.4,27.6,24.2,21.1,68,49,32,30.23,30.10,5,2,5,0.00
2013-3-28,58.3,44.9,34.6,29.1,24.6,21.7,64,46,28,30.29,30.16,4,2,4,0.00
2013-3-29,62.3,48.7,34.2,30.8,26.2,21.8,61,43,28,30.33,30.18,4,1,4,0.00
2013-3-30,68.2,54.8,41.8,38.4,31.5,25.4,56,43,28,30.26,30.09,4,1,4,0.00
2013-3-31,68.0,57.4,48.8,56.1,49.0,38.8,86,74,55,30.11,29.82,4,1,4,0.57
2013-4-1,73.8,61.2,50.2,52.8,47.0,33.4,88,64,34,30.02,29.83,8,1,8,0.08
2013-4-2,62.3,50.4,38.3,33.4,28.1,21.3,69,45,22,30.17,30.01,7,1,7,0.00
2013-4-3,61.9,49.7,37.1,26.0,22.6,18.7,53,36,22,30.31,30.15,8,1,8,0.00
2013-4-4,50.4,42.4,38.5,36.1,28.5,19.4,89,60,39,30.38,29.94,7,2,7,0.77
2013-4-5,66.6,50.4,38.5,48.3,40.3,34.5,91,71,41,30.03,29.89,5,1,5,0.04
2013-4-6,65.9,55.0,43.7,35.1,31.5,23.4,62,42,28,30.29,30.02,7,2,7,0.00
2013-4-7,75.2,57.8,39.2,45.3,38.6,30.4,73,51,33,30.29,30.12,9,1,9,0.00
2013-4-8,82.1,66.8,53.3,57.5,50.3,40.8,81,57,38,30.18,30.06,8,2,8,0.00
2013-4-9,88.4,73.2,58.7,60.9,55.5,50.9,81,57,33,30.19,30.07,9,2,10,0.00
2013-4-10,91.1,77.9,60.7,64.2,58.6,53.1,80,53,36,30.11,29.96,7,2,7,0.00
2013-4-11,83.0,72.9,62.6,64.2,59.3,55.3,81,63,47,30.02,29.82,10,2,10,0.00
2013-4-12,83.2,73.9,65.7,69.0,62.2,43.7,90,69,45,29.83,29.63,9,2,9,0.49
2013-4-13,77.2,65.5,52.7,46.5,42.5,39.2,64,44,30,30.03,29.79,6,1,6,0.00
2013-4-14,83.9,67.5,48.2,49.2,42.6,37.1,71,43,23,30.12,30.02,6,1,6,0.00
2013-4-15,71.6,64.9,56.5,56.7,55.0,49.6,86,71,53,30.24,30.08,6,1,6,0.11
2013-4-16,78.3,66.9,59.8,63.2,57.9,55.3,86,74,55,30.33,30.22,4,0,4,0.00
2013-4-17,81.7,70.3,59.8,66.3,60.7,55.3,88,72,56,30.25,30.13,5,0,5,0.00
2013-4-18,82.8,71.3,61.7,62.9,59.4,55.8,84,67,47,30.22,30.06,8,1,8,0.00
2013-4-19,81.4,71.7,66.6,67.6,63.9,59.1,87,77,61,30.07,29.73,10,2,10,0.40
2013-4-20,65.5,58.1,48.1,42.5,40.2,37.1,71,52,40,30.28,30.12,5,1,5,0.00
2013-4-21,63.9,51.8,44.5,41.3,37.7,33.9,77,60,42,30.51,30.28,6,1,6,0.00
2013-4-22,62.5,49.8,37.8,42.4,37.6,32.2,82,64,43,30.50,30.29,5,1,5,0.00
2013-4-23,68.8,55.3,47.2,51.0,45.9,41.9,84,72,52,30.30,30.13,3,1,3,0.01
2013-4-24,77.4,61.3,50.8,58.7,51.2,45.9,87,71,49,30.16,29.99,3,0,3,0.00
2013-4-25,72.0,62.1,52.2,54.3,46.0,38.6,76,57,40,30.29,30.02,2,1,2,0.00
2013-4-26,75.4,60.0,47.2,44.6,41.9,38.9,78,54,31,30.44,30.29,3,0,3,0.00
2013-4-27,74.7,62.9,53.3,50.5,46.5,42.7,73,57,39,30.39,30.28,2,0,2,0.00
2013-4-28,60.3,56.8,54.9,53.5,51.2,48.5,89,82,70,30.28,30.11,3,0,3,0.53
2013-4-29,71.3,61.6,54.9,63.7,57.6,51.7,92,87,74,30.11,29.99,3,0,3,0.54
2013-4-30,65.0,60.0,56.9,60.2,56.3,53.1,93,88,80,30.20,30.03,3,0,3,0.01
2013-5-1,60.7,58.1,57.1,58.1,55.1,53.8,91,90,89,30.36,30.18,4,1,4,0.02
2013-5-2,60.8,57.5,54.4,56.9,54.3,50.7,92,89,86,30.36,30.28,2,0,2,0.00
2013-5-3,67.7,56.6,48.4,57.3,49.2,43.0,92,78,50,30.29,30.19,4,1,4,0.01
2013-5-4,60.3,53.5,48.4,52.6,47.4,42.9,85,80,73,30.24,30.11,4,1,4,0.00
2013-5-5,58.0,53.5,48.2,53.8,49.1,44.1,89,85,78,30.13,30.02,4,1,4,0.00
2013-5-6,64.1,58.8,55.1,61.2,56.6,52.4,94,92,89,30.03,29.86,3,1,3,1.57
2013-5-7,73.1,61.8,55.4,61.2,55.5,50.8,94,81,56,29.97,29.87,6,0,6,0.00
2013-5-8,68.2,61.0,54.4,60.2,55.3,49.6,89,82,69,30.03,29.94,3,0,3,0.01
2013-5-9,81.7,67.2,54.2,63.4,57.6,50.9,92,73,51,30.08,29.99,3,0,3,0.00
2013-5-10,87.1,72.8,59.8,66.7,59.9,54.2,84,66,42,30.08,29.97,4,0,4,0.00
2013-5-11,82.6,72.7,67.7,66.1,62.5,58.6,84,71,52,29.98,29.81,5,0,5,0.35
2013-5-12,75.1,65.2,55.3,62.5,52.6,37.4,88,66,41,30.04,29.82,5,0,5,0.02
2013-5-13,68.2,57.3,47.2,42.3,39.4,36.8,71,53,37,30.20,30.05,4,0,4,0.00
2013-5-14,73.6,58.3,44.1,45.6,40.6,35.1,74,54,33,30.27,30.08,4,0,4,0.00
2013-5-15,89.5,70.2,54.4,64.7,54.7,43.5,71,59,42,30.08,29.91,5,0,5,0.00
2013-5-16,85.5,74.9,66.1,64.2,61.1,58.1,77,63,47,30.00,29.91,2,0,2,0.00
2013-5-17,89.3,76.1,65.3,66.7,62.1,57.9,80,63,45,30.11,29.99,2,0,2,0.00
2013-5-18,75.2,69.2,62.5,68.1,62.7,56.5,88,80,72,30.18,30.09,1,0,1,1.06
2013-5-19,75.1,68.1,63.7,69.9,64.6,60.8,92,89,83,30.18,30.09,1,0,1,0.68
2013-5-20,76.5,69.7,67.7,71.6,66.6,64.9,92,90,85,30.14,30.05,1,0,1,0.56
2013-5-21,86.0,74.2,68.0,75.7,69.1,65.6,93,85,69,30.08,29.98,2,0,2,0.00
2013-5-22,86.6,75.7,69.8,72.5,68.2,66.1,89,78,58,30.05,29.95,2,1,2,0.00
2013-5-23,80.8,73.3,68.0,70.2,67.3,64.4,90,82,70,29.99,29.84,2,0,2,0.27
2013-5-24,68.9,65.4,63.0,64.7,60.2,53.0,89,84,57,30.03,29.84,3,1,3,0.01
2013-5-25,76.0,63.4,46.4,48.8,44.9,39.7,78,53,35,30.28,30.15,2,0,2,0.00
2013-5-26,77.4,62.4,50.2,51.6,46.8,40.5,75,58,39,30.29,30.19,2,0,2,0.00
2013-5-27,82.3,67.8,54.0,58.6,53.4,47.0,80,62,43,30.30,30.18,2,0,2,0.00
2013-5-28,85.7,72.9,61.7,68.2,61.4,53.8,84,68,54,30.27,30.16,2,0,2,0.00
2013-5-29,88.2,75.8,65.5,67.9,63.5,59.9,84,67,50,30.26,30.19,2,0,2,0.00
2013-5-30,89.3,76.0,65.5,69.8,64.3,60.2,85,69,48,30.30,30.21,2,0,2,0.00
2013-5-31,88.4,76.9,67.5,70.4,65.9,62.0,86,70,52,30.25,30.14,2,0,2,0.00
2013-6-1,90.9,78.4,68.8,69.3,66.2,63.5,86,68,47,30.16,30.04,3,0,3,0.00
2013-6-2,88.0,77.3,69.7,69.9,66.7,62.7,84,71,55,30.07,29.94,2,1,2,0.19
2013-6-3,82.3,73.8,68.9,72.5,68.6,64.5,90,84,70,29.99,29.87,3,0,3,0.59
2013-6-4,74.9,69.1,65.0,66.9,64.1,62.2,91,84,74,30.13,29.98,1,0,1,0.00
2013-6-5,82.6,71.4,62.6,66.9,63.0,59.8,90,76,57,30.17,30.06,1,0,1,0.00
2013-6-6,72.5,70.1,65.9,69.4,64.8,58.7,91,84,68,30.07,29.85,4,0,4,1.06
2013-6-7,70.9,69.7,68.0,68.1,67.0,65.6,92,91,91,29.88,29.57,1,0,1,3.20
2013-6-8,85.0,73.7,65.3,72.4,67.8,62.4,91,83,64,30.13,29.84,2,0,2,0.03
2013-6-9,88.0,76.4,67.5,74.5,69.2,64.0,90,79,64,30.19,30.09,0,0,0,0.01
2013-6-10,79.6,74.0,72.2,75.3,70.4,67.4,91,88,84,30.13,29.93,4,0,4,0.69
2013-6-11,86.0,76.1,69.5,72.0,68.6,66.4,90,78,61,29.98,29.93,2,0,2,0.00
2013-6-12,91.1,78.5,67.9,76.2,69.6,62.8,86,75,58,30.01,29.90,2,0,2,0.00
2013-6-13,95.2,82.7,74.2,76.5,73.1,70.1,88,75,50,29.90,29.64,4,1,4,0.00
2013-6-14,79.6,73.1,63.2,63.5,60.6,57.1,81,66,55,30.05,29.82,4,0,4,0.00
2013-6-15,84.8,73.0,62.5,66.7,62.0,56.7,84,70,51,30.15,30.05,3,0,3,0.00
2013-6-16,88.6,76.4,65.9,72.3,65.5,58.4,80,70,57,30.14,30.03,5,0,5,0.00
2013-6-17,85.3,77.1,71.5,74.3,69.0,64.2,81,76,69,30.06,29.96,3,0,3,0.00
2013-6-18,82.3,74.0,68.8,74.2,69.1,65.7,91,85,75,30.00,29.79,3,0,3,0.54
2013-6-19,80.3,71.9,65.9,70.0,66.5,63.2,92,83,68,30.15,29.91,3,0,3,0.00
2013-6-20,83.9,72.7,64.6,67.5,63.9,59.5,91,75,55,30.28,30.15,4,0,4,0.00
2013-6-21,85.0,71.3,58.5,64.1,59.0,53.1,86,67,46,30.29,30.22,3,0,3,0.00
2013-6-22,80.6,73.0,68.4,71.6,67.4,61.4,88,83,73,30.25,30.15,3,0,3,0.01
2013-6-23,87.5,74.5,69.5,76.1,69.6,66.1,90,85,68,30.24,30.15,3,0,3,0.09
2013-6-24,88.7,78.5,71.5,76.7,71.8,67.7,90,80,67,30.24,30.11,2,0,2,0.00
2013-6-25,92.2,79.1,70.6,77.9,71.3,66.5,89,78,60,30.15,30.04,2,0,2,0.00
2013-6-26,92.7,78.2,70.7,77.8,70.7,66.2,88,78,58,30.06,29.92,2,0,2,1.03
2013-6-27,89.1,77.8,68.6,76.2,71.2,65.2,92,81,65,29.95,29.75,2,0,2,0.01
2013-6-28,90.9,78.6,72.7,77.1,71.8,67.3,90,80,62,29.78,29.61,2,0,2,0.63
2013-6-29,84.1,76.0,70.2,74.5,70.9,67.1,91,84,72,29.76,29.63,2,0,2,0.28
2013-6-30,85.3,73.0,69.3,76.4,68.9,64.7,92,87,74,29.90,29.75,3,0,3,1.19
2013-7-1,82.3,74.6,70.4,76.3,70.7,67.6,91,88,79,30.02,29.88,4,0,4,0.98
2013-7-2,74.5,73.6,72.7,71.7,70.7,69.3,92,90,89,30.22,30.02,2,0,2,0.28
2013-7-3,73.1,73.1,73.1,70.0,70.0,70.0,90,90,90,30.20,30.20,1,0,1,0.00
2013-7-10,88.9,80.3,73.1,77.6,73.7,69.8,91,81,66,30.10,29.98,4,1,4,0.30
2013-7-11,78.7,75.1,73.4,74.2,71.8,70.2,91,89,85,30.01,29.92,1,0,1,0.81
2013-7-12,73.3,71.8,70.0,70.5,68.8,67.2,91,90,88,30.06,29.90,1,0,1,0.01
2013-7-13,76.1,72.5,69.3,73.4,69.7,66.5,91,91,90,30.21,30.04,1,0,1,0.18
2013-7-14,87.8,78.0,70.6,76.9,72.2,67.8,92,83,68,30.33,30.21,2,0,2,0.00
2013-7-15,88.9,79.5,70.9,76.6,72.3,67.5,91,79,64,30.36,30.28,1,0,1,0.00
2013-7-16,94.1,81.6,71.6,79.7,73.6,67.9,89,78,62,30.30,30.22,2,0,2,0.00
2013-7-17,92.7,84.9,75.6,79.5,76.7,72.5,91,77,63,30.26,30.14,3,0,3,0.00
2013-7-18,94.0,83.7,75.4,80.5,76.0,71.6,89,78,62,30.18,30.07,3,0,3,0.00
2013-7-19,92.2,82.8,75.6,78.9,74.8,71.6,89,77,60,30.12,30.00,5,0,5,0.00
2013-7-20,90.0,80.7,75.1,78.8,73.9,70.7,86,80,66,30.06,29.95,5,0,5,0.00
2013-7-21,89.5,78.8,74.7,78.5,73.1,70.7,88,83,69,30.02,29.94,4,0,4,0.00
2013-7-22,88.9,78.8,72.7,77.9,73.0,69.3,91,83,68,29.98,29.86,4,0,4,0.00
2013-7-23,89.8,80.9,74.5,76.4,73.2,70.7,89,78,64,29.87,29.76,2,0,2,0.00
2013-7-24,93.8,81.5,73.6,76.0,71.7,68.7,85,73,53,29.88,29.76,1,0,1,0.00
2013-7-25,77.9,72.6,66.6,70.3,67.3,63.5,90,83,76,30.07,29.87,1,0,1,0.73
2013-7-26,85.9,74.0,64.3,70.8,65.8,60.6,90,76,60,30.14,30.06,2,0,2,0.00
2013-7-27,82.4,73.6,68.0,72.7,67.8,64.0,89,82,70,30.10,29.97,3,0,3,0.35
2013-7-28,87.7,76.9,70.0,75.3,70.6,67.0,91,82,63,30.02,29.96,2,0,2,0.00
2013-7-29,87.7,76.5,69.5,71.6,68.1,63.8,89,76,57,30.18,30.01,2,0,2,0.01
2013-7-30,86.9,74.8,64.3,71.2,65.5,58.7,82,73,58,30.25,30.17,1,0,1,0.00
2013-7-31,81.2,75.1,70.9,73.1,69.5,66.7,89,83,75,30.18,30.02,1,0,1,0.03
2013-8-1,84.8,76.0,71.1,76.3,71.2,67.7,91,85,75,30.04,29.89,1,0,1,0.28
2013-8-2,88.2,76.4,67.7,74.4,69.3,64.6,91,80,63,30.06,29.94,2,0,2,0.05
2013-8-3,87.8,77.2,71.8,77.6,72.1,67.6,91,84,70,30.04,29.96,2,1,2,0.16
2013-8-5,78.1,75.4,73.4,68.0,67.4,67.0,81,76,71,30.06,30.04,0,0,0,0.00
2013-8-6,81.2,73.6,66.8,72.6,67.0,62.9,89,80,69,30.09,30.02,2,0,2,0.33
2013-8-7,85.1,76.3,69.5,73.5,69.3,64.9,89,79,65,30.13,30.06,2,0,2,0.00
2013-8-8,86.9,78.4,71.6,75.6,71.9,67.9,89,81,69,30.10,30.04,2,0,2,0.00
2013-8-9,92.0,81.1,74.0,78.8,73.8,70.6,90,79,63,30.08,30.01,1,0,1,0.00
2013-8-10,91.4,78.8,74.9,79.8,73.1,70.7,89,83,67,30.12,30.05,2,0,2,0.14
2013-8-11,92.0,79.1,72.5,78.8,73.3,69.5,92,83,63,30.14,30.05,1,0,1,0.03
2013-8-12,91.8,80.7,73.1,77.3,73.3,70.0,91,79,59,30.08,29.97,1,0,1,0.00
2013-8-13,87.8,78.8,72.9,78.0,73.4,69.5,91,84,72,29.99,29.82,1,0,1,0.52
2013-8-14,74.5,71.4,64.4,70.6,65.6,59.5,89,82,75,30.12,29.85,1,0,1,0.00
2013-8-15,77.0,66.5,59.6,63.2,59.2,55.7,87,78,60,30.19,30.11,4,0,4,0.00
2013-8-16,69.3,65.1,59.8,62.9,60.0,56.5,89,84,78,30.21,30.13,0,0,0,0.00
2013-8-17,70.0,65.8,61.9,67.9,63.0,58.7,93,91,87,30.21,30.15,2,0,2,0.43
2013-8-18,76.1,70.5,67.0,70.7,67.2,64.2,93,89,82,30.23,30.14,1,0,1,0.13
2013-8-19,74.0,69.2,65.9,70.9,66.5,63.4,93,91,89,30.22,30.13,2,0,2,0.32
2013-8-20,81.2,73.0,66.1,73.4,69.0,63.4,93,87,77,30.22,30.13,1,0,1,0.00
2013-8-21,83.5,75.3,72.4,77.3,71.8,69.3,92,89,80,30.26,30.13,2,0,2,0.59
2013-8-22,88.7,77.8,70.7,76.9,71.8,68.0,92,83,65,30.17,30.03,2,0,2,0.00
2013-8-23,86.8,76.4,68.8,75.5,70.5,64.1,89,82,69,30.12,29.97,2,0,2,0.00
2013-8-24,81.9,71.9,63.7,66.4,63.5,60.5,89,76,55,30.33,30.11,2,0,2,0.00
2013-8-25,79.4,69.9,62.3,65.6,61.8,58.4,90,76,58,30.42,30.32,2,0,2,0.00
2013-8-26,84.2,69.8,58.0,66.9,60.5,54.1,90,74,51,30.35,30.14,2,0,2,0.00
2013-8-27,88.2,75.6,65.2,74.7,67.3,58.8,85,76,60,30.15,30.00,2,0,2,0.00
2013-8-28,79.9,76.4,72.5,75.1,71.7,67.8,88,85,81,30.02,29.89,1,0,1,0.01
2013-8-29,84.2,78.2,74.2,75.4,72.1,69.4,88,82,71,30.04,29.87,1,0,1,0.00
2013-8-30,88.2,76.3,68.0,72.7,68.6,64.9,90,78,58,30.10,29.97,1,0,1,0.00
2013-8-31,88.4,77.2,68.8,75.2,69.9,64.5,90,79,63,30.00,29.90,2,0,2,0.00
2013-9-1,89.6,77.3,71.8,77.5,71.6,68.0,91,83,66,29.93,29.83,4,0,4,1.17
2013-9-2,85.7,77.2,69.8,76.3,71.8,67.1,92,84,71,29.92,29.84,1,0,1,0.00
2013-9-3,87.8,78.5,72.4,76.8,72.5,69.1,91,82,69,29.97,29.83,2,0,2,0.04
2013-9-4,83.7,74.5,66.1,71.9,67.9,62.7,90,81,67,30.13,29.98,3,0,3,0.00
2013-9-5,85.7,74.2,65.7,67.3,64.8,62.7,90,74,51,30.13,30.07,1,0,1,0.00
2013-9-6,80.6,71.2,63.5,65.5,61.4,56.3,81,72,57,30.21,30.13,2,0,2,0.00
2013-9-7,83.3,70.6,60.8,67.9,62.5,56.9,88,76,59,30.16,30.02,2,0,2,0.00
2013-9-8,86.8,74.6,65.5,69.9,65.6,61.8,88,75,54,30.02,29.95,2,0,2,0.00
2013-9-9,87.5,76.1,67.5,72.9,68.1,63.8,88,77,61,30.17,30.03,4,0,4,0.00
2013-9-10,89.6,78.1,70.0,74.6,70.0,66.2,89,77,59,30.26,30.17,3,0,3,0.00
2013-9-11,89.6,78.0,69.7,74.5,69.0,64.9,86,75,57,30.23,30.11,0,0,0,0.00
2013-9-12,90.4,78.3,70.2,75.4,70.0,65.1,85,76,61,30.11,29.84,0,0,0,0.00
2013-9-13,85.1,75.0,65.9,69.0,64.0,53.7,83,70,53,29.93,29.79,0,0,0,0.00
2013-9-14,76.1,65.9,58.5,56.7,53.5,50.2,77,65,50,30.17,29.93,2,0,2,0.01
2013-9-15,78.8,66.1,53.5,62.2,56.6,48.8,85,72,55,30.26,30.14,2,0,2,0.00
2013-9-16,84.6,72.8,65.9,69.7,63.9,59.8,90,75,55,30.22,30.08,2,0,2,0.00
2013-9-17,74.7,66.2,58.9,59.0,55.2,50.6,83,69,51,30.35,30.22,2,0,2,0.00
2013-9-18,71.6,61.2,51.1,54.7,51.2,47.0,88,71,51,30.33,30.20,2,0,2,0.00
2013-9-19,75.6,64.5,56.3,62.8,56.9,50.0,85,77,62,30.21,30.10,1,0,1,0.00
2013-9-20,69.3,66.4,62.6,65.3,62.4,59.0,90,87,82,30.12,30.00,2,0,2,0.20
2013-9-21,74.3,68.8,65.7,69.8,65.7,62.7,92,90,85,30.00,29.76,2,0,2,0.49
2013-9-22,74.7,67.2,61.9,63.9,61.4,56.7,93,82,66,29.92,29.75,2,0,2,0.29
2013-9-23,71.3,62.6,54.9,58.1,54.8,50.4,86,76,63,30.09,29.93,2,0,2,0.00
2013-9-24,74.3,63.2,55.4,61.8,56.3,51.3,89,79,65,30.12,29.97,3,0,3,0.00
2013-9-25,70.9,63.3,55.1,63.1,58.2,51.2,90,84,72,29.98,29.90,1,0,1,0.00
2013-9-26,73.1,65.4,59.0,60.9,58.5,54.6,90,79,61,30.05,29.91,2,0,2,0.00
2013-9-27,72.0,62.5,54.7,60.4,55.9,51.5,90,80,64,30.21,30.06,0,0,0,0.00
2013-9-28,69.5,60.9,53.8,57.2,54.3,50.7,90,79,64,30.27,30.19,2,0,2,0.00
2013-9-29,71.6,62.2,52.9,58.1,54.3,50.0,91,76,59,30.19,30.05,2,0,2,0.00
2013-9-30,74.5,62.9,53.3,61.1,55.4,49.8,89,77,59,30.12,30.01,2,0,2,0.00
2013-10-1,80.3,67.2,55.8,64.8,58.5,51.1,89,75,57,30.13,30.04,2,0,2,0.00
2013-10-2,82.4,70.1,59.6,65.1,60.5,55.5,87,73,53,30.15,30.06,1,0,1,0.00
2013-10-3,85.3,72.2,62.5,66.4,62.1,57.6,88,72,50,30.15,30.07,2,0,2,0.00
2013-10-4,85.1,73.0,63.7,69.0,64.1,59.0,88,74,55,30.15,30.07,1,0,1,0.00
2013-10-5,87.1,74.5,64.4,71.2,65.2,59.9,88,74,55,30.13,30.04,2,0,2,0.00
2013-10-6,81.7,73.5,65.2,69.8,66.1,60.8,88,78,64,30.09,29.96,2,0,2,0.00
2013-10-7,73.8,70.7,64.1,69.2,67.0,58.8,91,88,83,30.02,29.87,5,1,5,1.64
2013-10-8,63.4,59.7,57.6,57.4,51.4,48.2,83,74,69,30.23,30.03,3,1,3,0.00
2013-10-9,61.9,57.7,54.2,55.4,52.2,49.5,91,82,76,30.21,30.11,3,1,3,0.15
2013-10-10,60.3,56.4,53.1,58.2,54.0,50.8,93,92,91,30.11,29.97,2,1,2,0.07
2013-10-11,65.2,61.2,58.1,62.2,58.8,55.8,93,92,90,29.98,29.93,1,0,1,0.08
2013-10-12,67.1,63.5,61.2,64.4,61.0,58.6,92,91,91,30.10,29.97,2,0,2,0.04
2013-10-13,65.2,62.7,60.8,62.5,60.4,58.9,93,92,90,30.23,30.10,2,1,2,0.17
2013-10-14,63.7,61.1,57.4,61.0,58.8,54.8,93,92,90,30.26,30.20,2,1,2,0.04
2013-10-15,70.2,61.4,53.3,61.5,57.0,51.3,93,86,74,30.22,30.08,2,0,2,0.00
2013-10-16,70.2,65.0,62.6,64.1,61.1,59.4,91,87,80,30.08,29.98,2,0,2,0.05
2013-10-17,72.0,66.4,61.9,65.2,62.2,59.0,91,86,77,29.99,29.86,1,0,1,0.00
2013-10-18,67.9,62.5,55.4,63.9,54.9,49.7,90,77,61,30.06,29.90,3,0,3,0.00
2013-10-19,66.8,60.9,57.1,63.1,57.3,53.2,92,88,84,30.00,29.83,0,0,0,0.02
2013-10-20,61.2,55.2,48.1,56.9,47.7,43.3,90,77,59,30.13,29.92,2,0,2,0.00
2013-10-21,64.4,53.2,42.1,51.8,45.8,38.3,89,77,57,30.17,30.03,2,0,2,0.00
2013-10-22,65.7,59.0,54.2,58.9,53.8,49.0,88,83,74,30.01,29.84,1,0,1,0.00
2013-10-23,63.4,57.6,48.6,56.3,49.8,37.0,91,77,55,29.99,29.70,2,0,2,0.09
2013-10-24,56.5,48.1,40.5,39.9,36.6,32.9,76,65,50,30.18,30.00,2,0,2,0.00
2013-10-25,53.6,46.3,39.8,36.5,34.1,30.2,75,63,47,30.35,30.18,2,0,2,0.00
2013-10-26,56.5,45.5,34.9,37.5,33.3,27.9,76,63,47,30.35,30.07,2,0,2,0.00
2013-10-27,63.4,54.0,47.2,44.8,41.4,37.5,73,63,48,30.13,30.05,1,0,1,0.00
2013-10-28,66.6,56.0,46.8,53.5,47.9,41.3,86,75,60,30.27,30.13,1,0,1,0.00
2013-10-29,69.1,60.4,54.7,58.3,53.6,50.3,86,79,65,30.34,30.25,1,0,1,0.00
2013-10-30,70.4,60.5,54.4,60.1,55.0,50.2,90,82,70,30.30,30.16,1,0,1,0.00
2013-10-31,71.3,63.8,57.2,62.2,57.5,53.4,90,80,69,30.20,29.94,2,0,2,0.00
2013-11-1,70.6,67.6,64.1,65.9,63.7,60.8,91,87,81,29.93,29.69,4,1,4,0.00
2013-11-2,67.7,60.9,54.4,60.8,53.3,44.5,90,77,54,29.95,29.71,2,0,2,0.00
2013-11-3,60.5,52.0,45.5,43.7,40.7,37.7,76,66,52,30.37,29.95,2,0,2,0.00
2013-11-4,52.6,45.0,38.3,37.2,34.1,31.0,77,66,51,30.55,30.37,2,0,2,0.00
2013-11-5,56.0,47.2,38.0,46.9,39.3,31.1,81,74,68,30.54,30.44,2,1,2,0.00
2013-11-6,67.3,56.0,45.4,55.5,49.2,41.1,87,79,66,30.44,30.13,2,0,2,0.00
2013-11-7,67.3,59.0,46.6,60.8,51.8,34.4,92,78,57,30.12,29.94,2,1,2,0.00
2013-11-8,54.7,46.5,39.6,34.9,32.2,29.4,68,58,43,30.32,30.11,2,0,2,0.00
2013-11-9,56.9,45.7,34.9,37.0,32.9,27.5,77,62,44,30.37,30.19,2,0,2,0.00
2013-11-10,68.6,55.2,44.6,43.5,36.9,30.4,69,52,38,30.24,30.06,3,1,3,0.00
2013-11-11,57.2,48.4,38.5,33.7,30.9,27.4,64,51,39,30.35,30.14,2,0,2,0.00
2013-11-12,58.0,43.7,35.1,39.9,32.2,21.0,80,64,48,30.42,30.04,3,1,3,0.00
2013-11-13,43.6,35.6,28.6,22.4,20.2,17.5,65,54,42,30.52,30.41,2,0,2,0.00
2013-11-14,56.5,42.0,29.9,30.6,25.0,20.3,69,53,33,30.45,30.32,2,0,2,0.00
2013-11-15,59.2,47.6,34.9,42.3,33.6,23.6,70,58,49,30.35,30.21,2,0,2,0.00
2013-11-16,60.3,54.6,49.9,54.8,50.0,43.3,89,85,74,30.28,30.22,2,0,2,0.00
2013-11-17,66.4,59.8,54.5,60.8,56.2,51.7,91,88,81,30.23,29.92,2,0,2,0.00
2013-11-18,72.4,64.6,53.8,64.4,53.2,35.1,92,69,44,29.99,29.83,3,1,3,0.02
2013-11-19,55.1,48.3,41.9,34.7,31.2,28.9,60,52,42,30.31,29.99,4,1,4,0.00
2013-11-20,50.8,43.2,36.4,35.0,30.7,26.5,77,61,50,30.45,30.32,3,1,3,0.00
2013-11-21,56.2,47.9,40.1,45.4,39.9,34.5,80,74,66,30.50,30.40,3,1,3,0.00
2013-11-22,68.0,57.6,47.5,59.1,50.8,41.7,83,78,73,30.39,30.10,2,1,2,0.00
2013-11-23,62.3,55.8,43.0,57.2,43.1,24.1,86,64,41,30.17,30.05,4,1,4,0.00
2013-11-24,42.7,33.1,26.6,24.3,12.1,7.3,51,42,30,30.53,30.18,4,1,4,0.00
2013-11-25,42.1,31.9,21.4,17.8,14.2,10.4,65,49,34,30.57,30.37,2,0,2,0.00
2013-11-26,62.5,41.6,35.6,59.6,32.1,17.1,92,71,45,30.37,29.61,5,1,5,0.00
2013-11-27,46.1,39.3,29.7,43.9,35.2,21.1,92,85,69,30.14,29.52,4,2,4,0.00
2013-11-28,43.0,33.0,25.6,26.2,21.7,17.7,73,63,48,30.47,30.15,3,1,3,0.00
2013-11-29,48.4,37.2,28.8,29.5,24.9,21.9,75,62,45,30.64,30.45,3,1,3,0.00
2013-11-30,46.3,36.0,28.1,32.6,26.5,21.3,77,69,58,30.64,30.38,3,1,3,0.00
2013-12-1,57.4,41.3,29.0,37.1,30.2,23.9,83,66,46,30.36,30.04,2,0,2,0.00
2013-12-2,58.7,44.7,34.2,45.1,36.2,28.1,84,73,58,30.02,29.83,2,0,2,0.00
2013-12-3,55.1,47.1,37.4,45.7,40.4,32.8,87,78,69,30.00,29.88,3,0,3,0.00
2013-12-4,61.7,55.2,49.3,56.3,51.0,44.9,90,86,81,30.10,29.99,3,0,3,0.00
2013-12-5,67.5,60.8,55.4,63.6,57.9,52.2,92,90,87,30.14,30.04,4,1,4,0.00
2013-12-6,76.5,68.9,63.4,66.3,62.8,60.8,92,81,68,30.08,29.98,9,3,9,0.00
2013-12-7,67.3,47.8,42.1,63.0,42.6,34.4,90,82,74,30.46,30.00,4,2,4,0.29
2013-12-8,42.1,35.6,32.8,34.4,30.6,28.3,91,83,69,30.46,30.29,4,1,4,0.35
2013-12-9,43.9,38.9,34.0,41.8,36.8,31.6,93,92,91,30.29,30.07,2,0,2,0.32
2013-12-10,46.1,42.1,31.7,42.8,38.5,26.6,93,87,73,30.31,29.94,3,1,3,0.43
2013-12-11,48.4,37.2,29.2,31.6,27.6,22.7,84,69,52,30.44,30.28,3,1,3,0.00
2013-12-12,43.6,36.8,30.4,28.3,22.2,17.2,68,56,41,30.41,30.26,5,1,5,0.00
2013-12-13,50.9,37.8,26.6,28.0,22.6,16.4,70,55,39,30.38,30.26,3,0,3,0.00
2013-12-14,44.3,40.1,37.4,38.2,33.5,27.2,90,78,60,30.29,29.81,2,1,2,0.93
2013-12-15,52.2,42.6,36.9,42.0,35.4,27.9,91,77,56,30.07,29.71,4,1,4,0.04
2013-12-16,54.9,41.9,31.7,38.0,31.6,25.7,81,68,50,30.16,30.06,4,1,4,0.00
2013-12-17,59.2,45.8,35.3,43.5,36.1,30.0,84,70,54,30.11,29.88,6,1,6,0.00
2013-12-18,47.9,40.9,33.8,36.2,25.4,20.2,77,55,39,30.28,30.04,3,1,3,0.00
2013-12-19,61.6,45.9,32.4,32.7,26.1,20.0,63,47,31,30.30,30.21,8,2,8,0.00
2013-12-20,66.6,53.2,41.4,53.4,41.1,28.8,75,64,51,30.24,30.11,4,1,4,0.00
2013-12-21,72.4,59.7,49.0,63.1,53.0,44.1,88,79,66,30.15,30.04,4,1,4,0.03
2013-12-22,76.1,69.1,63.7,67.5,63.6,60.2,89,83,68,30.10,30.02,7,2,7,0.21
2013-12-23,65.5,59.9,46.4,62.6,56.2,39.0,91,87,75,30.16,30.01,4,2,4,0.78
2013-12-24,45.9,40.3,29.3,37.4,28.9,15.0,77,64,51,30.45,30.15,4,2,4,0.00
2013-12-25,38.3,29.7,23.0,18.8,15.9,12.6,66,57,45,30.54,30.40,3,1,3,0.00
2013-12-26,51.8,36.6,24.8,31.7,24.7,17.1,79,63,45,30.39,30.24,5,1,5,0.00
2013-12-27,51.8,38.9,28.8,28.6,24.0,19.7,71,56,39,30.45,30.35,2,0,2,0.00
2013-12-28,57.6,43.1,29.3,36.9,29.2,21.0,76,59,43,30.39,30.17,4,0,4,0.00
2013-12-29,54.0,47.3,41.9,49.0,42.5,37.1,90,83,72,30.16,29.72,4,1,4,1.81
2013-12-30,53.8,46.6,41.8,43.8,38.9,34.2,84,75,65,30.14,29.93,2,1,2,0.00
2013-12-31,50.0,42.9,37.1,36.5,30.5,23.8,84,63,44,30.35,30.12,5,1,5,0.02
2014-1-1,50.4,40.7,32.8,31.9,27.0,22.8,73,59,45,30.41,30.16,5,0,5,0.00
2014-1-2,46.8,42.1,38.3,40.6,34.6,28.0,89,75,64,30.15,29.60,4,0,4,0.55